createdAt,value
2016-09-12T00:02:39.292Z,"  -71"
2016-09-12T00:07:36.089Z,"  -71"
2016-09-12T00:12:32.940Z,"  -71"
2016-09-12T00:17:29.547Z,"  -71"
2016-09-12T00:22:26.773Z,"  -71"
2016-09-12T00:27:23.324Z,"  -71"
2016-09-12T00:32:19.972Z,"  -70"
2016-09-12T00:37:16.791Z,"  -70"
2016-09-12T00:42:13.229Z,"  -71"
2016-09-12T00:47:09.956Z,"  -71"
2016-09-12T00:52:06.640Z,"  -70"
2016-09-12T00:57:03.339Z,"  -71"
2016-09-12T01:02:00.396Z,"  -70"
2016-09-12T01:06:57.305Z,"  -72"
2016-09-12T01:11:53.956Z,"  -71"
2016-09-12T01:16:50.317Z,"  -70"
2016-09-12T01:21:46.974Z,"  -72"
2016-09-12T01:26:43.816Z,"  -71"
2016-09-12T01:31:40.375Z,"  -71"
2016-09-12T01:36:39.239Z,"  -71"
2016-09-12T01:41:35.241Z,"  -73"
2016-09-12T01:46:31.778Z,"  -72"
2016-09-12T01:51:28.170Z,"  -71"
2016-09-12T01:56:25.163Z,"  -70"
2016-09-12T02:01:21.697Z,"  -71"
2016-09-12T02:06:18.687Z,"  -71"
2016-09-12T02:11:15.759Z,"  -70"
2016-09-12T02:16:12.315Z,"  -70"
2016-09-12T02:21:08.852Z,"  -71"
2016-09-12T02:26:05.578Z,"  -71"
2016-09-12T02:31:02.098Z,"  -71"
2016-09-12T02:35:59.535Z,"  -71"
2016-09-12T02:40:56.279Z,"  -70"
2016-09-12T02:45:53.057Z,"  -71"
2016-09-12T02:50:49.546Z,"  -71"
2016-09-12T02:55:45.953Z,"  -71"
2016-09-12T03:00:42.738Z,"  -70"
2016-09-12T03:05:39.276Z,"  -70"
2016-09-12T03:10:35.931Z,"  -72"
2016-09-12T03:15:32.847Z,"  -71"
2016-09-12T03:20:29.354Z,"  -71"
2016-09-12T03:25:25.929Z,"  -71"
2016-09-12T03:30:22.666Z,"  -70"
2016-09-12T03:35:19.525Z,"  -70"
2016-09-12T03:40:16.530Z,"  -70"
2016-09-12T03:45:14.102Z,"  -70"
2016-09-12T03:50:10.905Z,"  -71"
2016-09-12T03:55:07.947Z,"  -71"
2016-09-12T04:00:04.385Z,"  -71"
2016-09-12T04:05:01.304Z,"  -71"
2016-09-12T04:09:58.079Z,"  -71"
2016-09-12T04:14:54.493Z,"  -71"
2016-09-12T04:19:53.572Z,"  -70"
2016-09-12T04:24:49.920Z,"  -71"
2016-09-12T04:29:46.766Z,"  -70"
2016-09-12T04:34:45.763Z,"  -70"
2016-09-12T04:39:41.835Z,"  -70"
2016-09-12T04:44:38.278Z,"  -71"
2016-09-12T04:49:34.720Z,"  -69"
2016-09-12T04:54:31.381Z,"  -70"
2016-09-12T04:59:27.967Z,"  -71"
2016-09-12T05:04:24.566Z,"  -69"
2016-09-12T05:09:21.177Z,"  -70"
2016-09-12T05:14:17.557Z,"  -70"
2016-09-12T05:19:14.548Z,"  -70"
2016-09-12T05:24:11.102Z,"  -69"
2016-09-12T05:29:07.704Z,"  -71"
2016-09-12T05:34:04.426Z,"  -71"
2016-09-12T05:39:01.106Z,"  -70"
2016-09-12T05:43:57.785Z,"  -71"
2016-09-12T05:48:54.580Z,"  -71"
2016-09-12T05:53:53.690Z,"  -70"
2016-09-12T05:58:49.741Z,"  -71"
2016-09-12T06:03:46.265Z,"  -71"
2016-09-12T06:08:42.718Z,"  -70"
2016-09-12T06:13:39.504Z,"  -70"
2016-09-12T06:18:38.902Z,"  -70"
2016-09-12T06:28:35.485Z,"  -69"
2016-09-12T06:33:32.057Z,"  -71"
2016-09-12T06:38:28.699Z,"  -72"
2016-09-12T12:26:06.341Z,"  -72"
2016-09-12T12:31:03.170Z,"  -72"
2016-09-12T12:46:05.582Z,"  -73"
2016-09-12T12:51:05.341Z,"  -74"
2016-09-12T12:56:01.342Z,"  -73"
2016-09-12T13:00:57.853Z,"  -73"
2016-09-12T13:05:54.636Z,"  -73"
2016-09-12T13:10:51.210Z,"  -74"
2016-09-12T13:15:48.206Z,"  -72"
2016-09-12T13:20:44.922Z,"  -73"
2016-09-12T13:25:41.502Z,"  -72"
2016-09-12T13:30:38.270Z,"  -73"
2016-09-12T13:35:37.573Z,"  -73"
2016-09-12T13:40:33.724Z,"  -73"
2016-09-12T13:45:30.444Z,"  -73"
2016-09-12T13:50:26.931Z,"  -74"
2016-09-12T13:55:23.580Z,"  -73"
2016-09-12T14:00:20.187Z,"  -73"
2016-09-12T14:05:16.870Z,"  -72"
2016-09-12T14:10:16.469Z,"  -73"
2016-09-12T14:15:12.844Z,"  -73"
2016-09-12T14:20:09.347Z,"  -72"
2016-09-12T14:25:07.533Z,"  -74"
2016-09-12T14:30:03.772Z,"  -73"
2016-09-12T14:35:00.478Z,"  -73"
2016-09-12T14:39:57.045Z,"  -72"
2016-09-12T14:44:54.966Z,"  -73"
2016-09-12T14:49:51.736Z,"  -73"
2016-09-12T14:54:49.829Z,"  -73"
2016-09-12T14:59:46.197Z,"  -73"
2016-09-12T15:04:42.758Z,"  -72"
2016-09-12T15:09:39.484Z,"  -72"
2016-09-12T15:14:36.312Z,"  -75"
2016-09-12T15:19:33.051Z,"  -74"
2016-09-12T15:24:29.836Z,"  -74"
2016-09-12T15:29:26.395Z,"  -74"
2016-09-12T15:34:24.275Z,"  -73"
2016-09-12T15:39:20.688Z,"  -74"
2016-09-12T15:44:18.618Z,"  -76"
2016-09-12T15:49:15.050Z,"  -75"
2016-09-12T15:54:12.362Z,"  -75"
2016-09-12T15:59:09.102Z,"  -73"
2016-09-12T16:04:05.791Z,"  -76"
2016-09-12T16:09:02.421Z,"  -73"
2016-09-12T16:13:59.087Z,"  -75"
2016-09-12T16:18:55.913Z,"  -72"
2016-09-12T16:23:52.717Z,"  -78"
2016-09-12T16:28:49.793Z,"  -73"
2016-09-12T16:33:46.611Z,"  -77"
2016-09-12T16:38:43.236Z,"  -77"
2016-09-12T16:43:40.111Z,"  -74"
2016-09-12T16:48:36.634Z,"  -78"
2016-09-12T16:53:33.511Z,"  -73"
2016-09-12T16:58:30.230Z,"  -77"
2016-09-12T17:03:26.847Z,"  -77"
2016-09-12T17:08:24.574Z,"  -77"
2016-09-12T17:13:21.303Z,"  -74"
2016-09-12T17:18:17.881Z,"  -80"
2016-09-12T17:23:14.869Z,"  -79"
2016-09-12T17:28:11.476Z,"  -79"
2016-09-12T17:33:08.211Z,"  -80"
2016-09-12T17:38:05.160Z,"  -75"
2016-09-12T17:43:01.981Z,"  -73"
2016-09-12T17:47:58.786Z,"  -70"
2016-09-12T17:52:55.604Z,"  -69"
2016-09-12T17:57:52.454Z,"  -73"
2016-09-12T18:02:49.155Z,"  -80"
2016-09-12T18:07:45.771Z,"  -75"
2016-09-12T18:12:44.842Z,"  -75"
2016-09-12T18:17:40.856Z,"  -74"
2016-09-12T18:22:37.673Z,"  -74"
2016-09-12T18:27:34.293Z,"  -71"
2016-09-12T18:32:30.876Z,"  -74"
2016-09-12T18:37:27.546Z,"  -73"
2016-09-12T18:42:24.184Z,"  -83"
2016-09-12T18:47:20.732Z,"  -82"
2016-09-12T18:52:18.104Z,"  -81"
2016-09-12T18:57:14.774Z,"  -79"
2016-09-12T19:02:11.336Z,"  -79"
2016-09-12T19:07:08.092Z,"  -78"
2016-09-12T19:12:04.757Z,"  -79"
2016-09-12T19:17:01.922Z,"  -79"
2016-09-12T19:21:58.457Z,"  -78"
2016-09-12T19:26:55.401Z,"  -75"
2016-09-12T19:31:52.127Z,"  -75"
2016-09-12T19:36:48.965Z,"  -75"
2016-09-12T19:41:45.576Z,"  -75"
2016-09-12T19:46:42.228Z,"  -75"
2016-09-12T19:51:41.366Z,"  -77"
2016-09-12T19:56:37.412Z,"  -72"
2016-09-12T20:01:34.333Z,"  -72"
2016-09-12T20:06:30.865Z,"  -75"
2016-09-12T20:11:27.475Z,"  -74"
2016-09-12T20:16:24.204Z,"  -72"
2016-09-12T20:21:20.771Z,"  -76"
2016-09-12T20:26:17.913Z,"  -78"
2016-09-12T20:31:14.612Z,"  -78"
2016-09-12T20:36:11.318Z,"  -78"
2016-09-12T20:41:08.003Z,"  -78"
2016-09-12T20:46:04.592Z,"  -77"
2016-09-12T20:51:01.035Z,"  -78"
2016-09-12T20:55:57.666Z,"  -77"
2016-09-12T21:00:54.357Z,"  -78"
2016-09-12T21:05:51.049Z,"  -78"
2016-09-12T21:10:47.789Z,"  -78"
2016-09-12T21:15:45.532Z,"  -78"
2016-09-12T21:20:41.819Z,"  -78"
2016-09-12T21:25:38.779Z,"  -78"
2016-09-12T21:30:35.431Z,"  -78"
2016-09-12T21:35:32.292Z,"  -78"
2016-09-12T21:40:29.066Z,"  -78"
2016-09-12T21:45:25.630Z,"  -77"
2016-09-12T21:50:22.274Z,"  -78"
2016-09-12T21:55:19.080Z,"  -78"
2016-09-12T22:00:18.289Z,"  -76"
2016-09-12T22:05:14.288Z,"  -77"
2016-09-12T22:10:10.972Z,"  -78"
2016-09-12T22:15:07.595Z,"  -77"
2016-09-12T22:20:04.254Z,"  -77"
2016-09-12T22:25:03.198Z,"  -78"
2016-09-12T22:29:59.078Z,"  -74"
2016-09-12T22:34:55.534Z,"  -74"
2016-09-12T22:39:52.303Z,"  -77"
2016-09-12T22:44:48.931Z,"  -77"
2016-09-12T22:49:45.761Z,"  -78"
2016-09-12T22:54:42.411Z,"  -77"
2016-09-12T22:59:39.109Z,"  -77"
2016-09-12T23:04:35.816Z,"  -76"
2016-09-12T23:09:32.740Z,"  -76"
2016-09-12T23:14:29.327Z,"  -75"
2016-09-12T23:19:25.863Z,"  -75"
2016-09-12T23:24:22.580Z,"  -74"
2016-09-12T23:29:19.113Z,"  -75"
2016-09-12T23:34:15.807Z,"  -75"
2016-09-12T23:39:12.445Z,"  -74"
2016-09-12T23:44:09.036Z,"  -73"
2016-09-12T23:49:05.672Z,"  -73"
2016-09-12T23:54:02.436Z,"  -74"
2016-09-12T23:58:59.091Z,"  -73"
